Map

Track Data

SID SEASON NUMBER BASIN SUBBASIN NAME ISO_TIME NATURE LAT LON WMO_WIND WMO_PRES WMO_AGENCY TRACK_TYPE DIST2LAND LANDFALL IFLAG USA_AGENCY USA_ATCF_ID USA_LAT USA_LON USA_RECORD USA_STATUS USA_WIND USA_PRES USA_SSHS USA_R34_NE USA_R34_SE USA_R34_SW USA_R34_NW USA_R50_NE USA_R50_SE USA_R50_SW USA_R50_NW USA_R64_NE USA_R64_SE USA_R64_SW USA_R64_NW USA_POCI USA_ROCI USA_RMW USA_EYE TOKYO_LAT TOKYO_LON TOKYO_GRADE TOKYO_WIND TOKYO_PRES TOKYO_R50_DIR TOKYO_R50_LONG TOKYO_R50_SHORT TOKYO_R30_DIR TOKYO_R30_LONG TOKYO_R30_SHORT TOKYO_LAND CMA_LAT CMA_LON CMA_CAT CMA_WIND CMA_PRES HKO_LAT HKO_LON HKO_CAT HKO_WIND HKO_PRES NEWDELHI_LAT NEWDELHI_LON NEWDELHI_GRADE NEWDELHI_WIND NEWDELHI_PRES NEWDELHI_CI NEWDELHI_DP NEWDELHI_POCI REUNION_LAT REUNION_LON REUNION_TYPE REUNION_WIND REUNION_PRES REUNION_TNUM REUNION_CI REUNION_RMW REUNION_R34_NE REUNION_R34_SE REUNION_R34_SW REUNION_R34_NW REUNION_R50_NE REUNION_R50_SE REUNION_R50_SW REUNION_R50_NW REUNION_R64_NE REUNION_R64_SE REUNION_R64_SW REUNION_R64_NW BOM_LAT BOM_LON BOM_TYPE BOM_WIND BOM_PRES BOM_TNUM BOM_CI BOM_RMW BOM_R34_NE BOM_R34_SE BOM_R34_SW BOM_R34_NW BOM_R50_NE BOM_R50_SE BOM_R50_SW BOM_R50_NW BOM_R64_NE BOM_R64_SE BOM_R64_SW BOM_R64_NW BOM_ROCI BOM_POCI BOM_EYE BOM_POS_METHOD BOM_PRES_METHOD NADI_LAT NADI_LON NADI_CAT NADI_WIND NADI_PRES WELLINGTON_LAT WELLINGTON_LON WELLINGTON_WIND WELLINGTON_PRES DS824_LAT DS824_LON DS824_STAGE DS824_WIND DS824_PRES TD9636_LAT TD9636_LON TD9636_STAGE TD9636_WIND TD9636_PRES TD9635_LAT TD9635_LON TD9635_WIND TD9635_PRES TD9635_ROCI NEUMANN_LAT NEUMANN_LON NEUMANN_CLASS NEUMANN_WIND NEUMANN_PRES MLC_LAT MLC_LON MLC_CLASS MLC_WIND MLC_PRES USA_GUST BOM_GUST BOM_GUST_PER REUNION_GUST REUNION_GUST_PER USA_SEAHGT USA_SEARAD_NE USA_SEARAD_SE USA_SEARAD_SW USA_SEARAD_NW STORM_SPEED STORM_DIR
1937237N18299 1937 35 NA CS NOT_NAMED 1937-08-24 12:00:00 TS 17.5000 -61.0000 30 hurdat_atl main 493 435 O_____________ hurdat_atl AL031937 17.5000 -61.0000 TD 30 -1 13 303
1937237N18299 1937 35 NA CS NOT_NAMED 1937-08-24 15:00:00 TS 17.8504 -61.5595 main 424 369 P_____________ AL031937 17.8504 -61.5595 TD 30 -1 13 304
1937237N18299 1937 35 NA CS NOT_NAMED 1937-08-24 18:00:00 TS 18.2000 -62.1000 30 hurdat_atl main 369 316 O_____________ hurdat_atl AL031937 18.2000 -62.1000 TD 30 -1 12 305
1937237N18299 1937 35 NA CS NOT_NAMED 1937-08-24 21:00:00 TS 18.5498 -62.6077 main 316 269 P_____________ AL031937 18.5498 -62.6077 TD 32 -1 12 306
1937237N18299 1937 35 NA NA NOT_NAMED 1937-08-25 00:00:00 TS 18.9000 -63.1000 35 hurdat_atl main 269 228 O_____________ hurdat_atl AL031937 18.9000 -63.1000 TS 35 0 12 307
1937237N18299 1937 35 NA NA NOT_NAMED 1937-08-25 03:00:00 TS 19.2499 -63.6002 main 228 207 P_____________ AL031937 19.2499 -63.6002 TS 35 0 12 307
1937237N18299 1937 35 NA NA NOT_NAMED 1937-08-25 06:00:00 TS 19.6000 -64.1000 35 hurdat_atl main 207 197 O_____________ hurdat_atl AL031937 19.6000 -64.1000 TS 35 0 12 307
1937237N18299 1937 35 NA NA NOT_NAMED 1937-08-25 09:00:00 TS 19.9648 -64.5926 main 207 202 P_____________ AL031937 19.9648 -64.5926 TS 35 0 12 307
1937237N18299 1937 35 NA NA NOT_NAMED 1937-08-25 12:00:00 TS 20.3000 -65.1000 35 hurdat_atl main 218 216 O_____________ hurdat_atl AL031937 20.3000 -65.1000 TS 35 0 12 301
1937237N18299 1937 35 NA NA NOT_NAMED 1937-08-25 15:00:00 TS 20.5574 -65.6429 main 246 246 P_____________ AL031937 20.5574 -65.6429 TS 35 0 11 296
1937237N18299 1937 35 NA NA NOT_NAMED 1937-08-25 18:00:00 TS 20.8000 -66.2000 35 hurdat_atl main 268 268 O_____________ hurdat_atl AL031937 20.8000 -66.2000 TS 35 0 12 298
1937237N18299 1937 35 NA NA NOT_NAMED 1937-08-25 21:00:00 TS 21.0997 -66.7426 main 302 302 P_____________ AL031937 21.0997 -66.7426 TS 35 0 12 300
1937237N18299 1937 35 NA NA NOT_NAMED 1937-08-26 00:00:00 TS 21.4000 -67.3000 35 hurdat_atl main 314 295 O_____________ hurdat_atl AL031937 21.4000 -67.3000 TS 35 0 12 297
1937237N18299 1937 35 NA NA NOT_NAMED 1937-08-26 03:00:00 TS 21.6574 -67.8928 main 305 294 P_____________ AL031937 21.6574 -67.8928 TS 35 0 12 294
1937237N18299 1937 35 NA NA NOT_NAMED 1937-08-26 06:00:00 TS 21.9000 -68.5000 35 hurdat_atl main 300 294 O_____________ hurdat_atl AL031937 21.9000 -68.5000 TS 35 0 12 294
1937237N18299 1937 35 NA NA NOT_NAMED 1937-08-26 09:00:00 TS 22.1499 -69.1077 main 294 294 P_____________ AL031937 22.1499 -69.1077 TS 35 0 12 294
1937237N18299 1937 35 NA NA NOT_NAMED 1937-08-26 12:00:00 TS 22.4000 -69.7000 35 hurdat_atl main 305 302 O_____________ hurdat_atl AL031937 22.4000 -69.7000 TS 35 0 12 295
1937237N18299 1937 35 NA NA NOT_NAMED 1937-08-26 15:00:00 TS 22.6423 -70.2653 main 314 295 P_____________ AL031937 22.6423 -70.2653 TS 35 0 11 296
1937237N18299 1937 35 NA NA NOT_NAMED 1937-08-26 18:00:00 TS 22.9000 -70.8000 35 hurdat_atl main 295 280 O_____________ hurdat_atl AL031937 22.9000 -70.8000 TS 35 0 11 300
1937237N18299 1937 35 NA NA NOT_NAMED 1937-08-26 21:00:00 TS 23.1998 -71.3076 main 283 277 P_____________ AL031937 23.1998 -71.3076 TS 35 0 11 303
1937237N18299 1937 35 NA NA NOT_NAMED 1937-08-27 00:00:00 TS 23.5000 -71.8000 35 hurdat_atl main 285 280 O_____________ hurdat_atl AL031937 23.5000 -71.8000 TS 35 0 11 302
1937237N18299 1937 35 NA NA NOT_NAMED 1937-08-27 03:00:00 TS 23.7649 -72.3076 main 299 295 P_____________ AL031937 23.7649 -72.3076 TS 35 0 10 299
1937237N18299 1937 35 NA NA NOT_NAMED 1937-08-27 06:00:00 TS 24.0000 -72.8000 35 hurdat_atl main 313 313 O_____________ hurdat_atl AL031937 24.0000 -72.8000 TS 35 0 10 298
1937237N18299 1937 35 NA NA NOT_NAMED 1937-08-27 09:00:00 TS 24.2299 -73.2650 main 335 335 P_____________ AL031937 24.2299 -73.2650 TS 35 0 9 296
1937237N18299 1937 35 NA NA NOT_NAMED 1937-08-27 12:00:00 TS 24.4000 -73.7000 35 hurdat_atl main 361 361 O_____________ hurdat_atl AL031937 24.4000 -73.7000 TS 35 0 8 288
1937237N18299 1937 35 NA NA NOT_NAMED 1937-08-27 15:00:00 TS 24.4799 -74.1152 main 364 323 P_____________ AL031937 24.4799 -74.1152 TS 35 0 7 278
1937237N18299 1937 35 NA NA NOT_NAMED 1937-08-27 18:00:00 TS 24.5000 -74.5000 35 hurdat_atl main 323 293 O_____________ hurdat_atl AL031937 24.5000 -74.5000 TS 35 0 7 272
1937237N18299 1937 35 NA NA NOT_NAMED 1937-08-27 21:00:00 TS 24.5074 -74.8576 main 283 252 P_____________ AL031937 24.5074 -74.8576 TS 35 0 6 270
1937237N18299 1937 35 NA NA NOT_NAMED 1937-08-28 00:00:00 TS 24.5000 -75.2000 35 hurdat_atl main 252 222 O_____________ hurdat_atl AL031937 24.5000 -75.2000 TS 35 0 6 269
1937237N18299 1937 35 NA NA NOT_NAMED 1937-08-28 03:00:00 TS 24.5000 -75.5575 main 212 182 P_____________ AL031937 24.5000 -75.5575 TS 35 0 6 270
1937237N18299 1937 35 NA NA NOT_NAMED 1937-08-28 06:00:00 TS 24.5000 -75.9000 35 hurdat_atl main 182 151 O_____________ hurdat_atl AL031937 24.5000 -75.9000 TS 35 0 6 268
1937237N18299 1937 35 NA NA NOT_NAMED 1937-08-28 09:00:00 TS 24.4774 -76.2077 main 151 121 P_____________ AL031937 24.4774 -76.2077 TS 37 0 5 270
1937237N18299 1937 35 NA NA NOT_NAMED 1937-08-28 12:00:00 TS 24.5000 -76.5000 40 hurdat_atl main 121 91 O_____________ hurdat_atl AL031937 24.5000 -76.5000 TS 40 0 6 283
1937237N18299 1937 35 NA NA NOT_NAMED 1937-08-28 15:00:00 TS 24.5974 -76.8001 main 91 69 P_____________ AL031937 24.5974 -76.8001 TS 40 0 6 299
1937237N18299 1937 35 NA NA NOT_NAMED 1937-08-28 18:00:00 TS 24.8000 -77.1000 40 hurdat_atl main 69 55 O_____________ hurdat_atl AL031937 24.8000 -77.1000 TS 40 0 8 314
1937237N18299 1937 35 NA NA NOT_NAMED 1937-08-28 21:00:00 TS 25.1200 -77.4074 main 55 45 P_____________ AL031937 25.1200 -77.4074 TS 40 0 9 322
1937237N18299 1937 35 NA NA NOT_NAMED 1937-08-29 00:00:00 TS 25.5000 -77.7000 40 hurdat_atl main 53 53 O_____________ hurdat_atl AL031937 25.5000 -77.7000 TS 40 0 9 326
1937237N18299 1937 35 NA NA NOT_NAMED 1937-08-29 03:00:00 TS 25.8575 -77.9651 main 89 89 P_____________ AL031937 25.8575 -77.9651 TS 40 0 8 327
1937237N18299 1937 35 NA NA NOT_NAMED 1937-08-29 06:00:00 TS 26.2000 -78.2000 40 hurdat_atl main 123 123 O_____________ hurdat_atl AL031937 26.2000 -78.2000 TS 40 0 8 328
1937237N18299 1937 35 NA NA NOT_NAMED 1937-08-29 09:00:00 TS 26.5000 -78.4152 main 159 138 P_____________ AL031937 26.5000 -78.4152 TS 42 0 7 329
1937237N18299 1937 35 NA NA NOT_NAMED 1937-08-29 12:00:00 TS 26.8000 -78.6000 45 hurdat_atl main 138 129 O_____________ hurdat_atl AL031937 26.8000 -78.6000 TS 45 0 7 335
1937237N18299 1937 35 NA NA NOT_NAMED 1937-08-29 15:00:00 TS 27.1500 -78.7576 main 123 123 P_____________ AL031937 27.1500 -78.7576 TS 45 0 8 339
1937237N18299 1937 35 NA NA NOT_NAMED 1937-08-29 18:00:00 TS 27.5000 -78.9000 45 hurdat_atl main 131 126 O_____________ hurdat_atl AL031937 27.5000 -78.9000 TS 45 0 7 340
1937237N18299 1937 35 NA NA NOT_NAMED 1937-08-29 21:00:00 TS 27.8149 -79.0352 main 135 126 P_____________ AL031937 27.8149 -79.0352 TS 47 0 7 336
1937237N18299 1937 35 NA NA NOT_NAMED 1937-08-30 00:00:00 TS 28.1000 -79.2000 50 hurdat_atl main 129 107 O_____________ hurdat_atl AL031937 28.1000 -79.2000 TS 50 0 6 329
1937237N18299 1937 35 NA NA NOT_NAMED 1937-08-30 03:00:00 TS 28.3649 -79.4126 main 107 78 P_____________ AL031937 28.3649 -79.4126 TS 52 0 7 319
1937237N18299 1937 35 NA NA NOT_NAMED 1937-08-30 06:00:00 TS 28.6000 -79.7000 55 hurdat_atl main 78 59 O_____________ hurdat_atl AL031937 28.6000 -79.7000 TS 55 0 7 310
1937237N18299 1937 35 NA NA NOT_NAMED 1937-08-30 09:00:00 TS 28.8179 -80.0341 main 59 31 P_____________ AL031937 28.8179 -80.0341 TS 57 0 8 300
1937237N18299 1937 35 NA NA NOT_NAMED 1937-08-30 12:00:00 TS 29.0000 -80.5000 60 hurdat_atl main 31 0 O_____________ hurdat_atl AL031937 29.0000 -80.5000 TS 60 0 10 290
1937237N18299 1937 35 NA NA NOT_NAMED 1937-08-30 14:00:00 TS 29.1000 -80.9000 60 hurdat_atl main 0 0 O_____________ hurdat_atl AL031937 29.1000 -80.9000 L TS 60 0 11 286
1937237N18299 1937 35 NA NA NOT_NAMED 1937-08-30 15:00:00 TS 29.1499 -81.1001 main 0 0 P_____________ AL031937 29.1499 -81.1001 TS 57 0 11 286
1937237N18299 1937 35 NA NA NOT_NAMED 1937-08-30 18:00:00 TS 29.3000 -81.7000 50 hurdat_atl main 0 0 O_____________ hurdat_atl AL031937 29.3000 -81.7000 TS 50 0 11 285
1937237N18299 1937 35 NA NA NOT_NAMED 1937-08-30 21:00:00 TS 29.4356 -82.3004 main 0 0 P_____________ AL031937 29.4356 -82.3004 TS 47 0 11 286
1937237N18299 1937 35 NA NA NOT_NAMED 1937-08-31 00:00:00 TS 29.6000 -82.9000 45 hurdat_atl main 0 0 O_____________ hurdat_atl AL031937 29.6000 -82.9000 TS 45 0 11 291
1937237N18299 1937 35 NA NA NOT_NAMED 1937-08-31 03:00:00 TS 29.8423 -83.5073 main 0 0 P_____________ AL031937 29.8423 -83.5073 TS 42 0 12 296
1937237N18299 1937 35 NA GM NOT_NAMED 1937-08-31 06:00:00 TS 30.1000 -84.1000 40 hurdat_atl main 0 0 O_____________ hurdat_atl AL031937 30.1000 -84.1000 TS 40 0 11 294
1937237N18299 1937 35 NA NA NOT_NAMED 1937-08-31 09:00:00 TS 30.2998 -84.6729 main 0 0 P_____________ AL031937 30.2998 -84.6729 TS 37 0 10 293
1937237N18299 1937 35 NA NA NOT_NAMED 1937-08-31 12:00:00 TS 30.5000 -85.2000 35 hurdat_atl main 0 0 O_____________ hurdat_atl AL031937 30.5000 -85.2000 TS 35 0 10 298
1937237N18299 1937 35 NA NA NOT_NAMED 1937-08-31 15:00:00 TS 30.7498 -85.6726 main 0 0 P_____________ AL031937 30.7498 -85.6726 TS 35 0 9 303
1937237N18299 1937 35 NA NA NOT_NAMED 1937-08-31 18:00:00 TS 31.0000 -86.1000 35 hurdat_atl main 0 0 O_____________ hurdat_atl AL031937 31.0000 -86.1000 TS 35 0 8 303
1937237N18299 1937 35 NA NA NOT_NAMED 1937-08-31 21:00:00 TS 31.1996 -86.4930 main 0 0 P_____________ AL031937 31.1997 -86.4930 TS 32 -1 8 300
1937237N18299 1937 35 NA NA NOT_NAMED 1937-09-01 00:00:00 TS 31.4000 -86.9000 30 hurdat_atl main 0 0 O_____________ hurdat_atl AL031937 31.4000 -86.9000 TD 30 -1 9 300
1937237N18299 1937 35 NA NA NOT_NAMED 1937-09-01 03:00:00 TS 31.6501 -87.3924 main 0 0 P_____________ AL031937 31.6501 -87.3924 TD 30 -1 10 300
1937237N18299 1937 35 NA NA NOT_NAMED 1937-09-01 06:00:00 TS 31.9000 -87.9000 30 hurdat_atl main 0 0 O_____________ hurdat_atl AL031937 31.9000 -87.9000 TD 30 -1 9 298
1937237N18299 1937 35 NA NA NOT_NAMED 1937-09-01 09:00:00 TS 32.0923 -88.3581 main 0 0 P_____________ AL031937 32.0923 -88.3581 TD 27 -1 9 298
1937237N18299 1937 35 NA NA NOT_NAMED 1937-09-01 12:00:00 TS 32.3000 -88.8000 25 hurdat_atl main 0 0 O_____________ hurdat_atl AL031937 32.3000 -88.8000 TD 25 -1 9 303
1937237N18299 1937 35 NA NA NOT_NAMED 1937-09-01 15:00:00 TS 32.5773 -89.2502 main 0 0 P_____________ AL031937 32.5773 -89.2502 TD 25 -1 10 308
1937237N18299 1937 35 NA NA NOT_NAMED 1937-09-01 18:00:00 TS 32.9000 -89.7000 25 hurdat_atl main 0 0 O_____________ hurdat_atl AL031937 32.9000 -89.7000 TD 25 -1 10 311
1937237N18299 1937 35 NA NA NOT_NAMED 1937-09-01 21:00:00 TS 33.2500 -90.1650 main 0 0 P_____________ AL031937 33.2500 -90.1650 TD 22 -1 10 313
1937237N18299 1937 35 NA NA NOT_NAMED 1937-09-02 00:00:00 TS 33.6000 -90.6000 20 hurdat_atl main 0 0 O_____________ hurdat_atl AL031937 33.6000 -90.6000 TD 20 -1 9 315
1937237N18299 1937 35 NA NA NOT_NAMED 1937-09-02 03:00:00 TS 33.9073 -90.9655 main 0 0 P_____________ AL031937 33.9073 -90.9655 TD 20 -1 8 316
1937237N18299 1937 35 NA NA NOT_NAMED 1937-09-02 06:00:00 TS 34.2000 -91.3000 20 hurdat_atl main 0 0 O_____________ hurdat_atl AL031937 34.2000 -91.3000 TD 20 -1 8 316
1937237N18299 1937 35 NA NA NOT_NAMED 1937-09-02 09:00:00 TS 34.4924 -91.6504 main 0 0 P_____________ AL031937 34.4924 -91.6504 TD 20 -1 8 316
1937237N18299 1937 35 NA NA NOT_NAMED 1937-09-02 12:00:00 TS 34.8000 -92.0000 20 hurdat_atl main 0 0 O_____________ hurdat_atl AL031937 34.8000 -92.0000 TD 20 -1 9 318
1937237N18299 1937 35 NA NA NOT_NAMED 1937-09-02 15:00:00 TS 35.1402 -92.3493 main 0 0 P_____________ AL031937 35.1402 -92.3493 TD 20 -1 9 321
1937237N18299 1937 35 NA NA NOT_NAMED 1937-09-02 18:00:00 TS 35.5000 -92.7000 20 hurdat_atl main 0 O_____________ hurdat_atl AL031937 35.5000 -92.7000 TD 20 -1 9 322

About IBTrACS Database

This database is a web-friendly format of International Best Track Archive for Climate Stewardship (IBTrACS), a global best track data archive curated by NOAA dating back to 1842.

Updated: 2021-11-26